sensor_id;sensor_type;location;lat;lon;timestamp;P1;durP1;ratioP1;P2;durP2;ratioP2
8411;SDS011;4243;49.296;11.348;2023-02-27T00:00:19;111.20;;;3.50;;
8411;SDS011;4243;49.296;11.348;2023-02-27T00:02:48;112.22;;;3.50;;
8411;SDS011;4243;49.296;11.348;2023-02-27T00:05:17;112.38;;;3.42;;
8411;SDS011;4243;49.296;11.348;2023-02-27T00:07:47;111.82;;;3.47;;
8411;SDS011;4243;49.296;11.348;2023-02-27T00:10:16;112.03;;;3.47;;
8411;SDS011;4243;49.296;11.348;2023-02-27T00:12:43;111.93;;;3.50;;
8411;SDS011;4243;49.296;11.348;2023-02-27T00:15:12;111.93;;;3.45;;
8411;SDS011;4243;49.296;11.348;2023-02-27T00:17:43;111.97;;;3.45;;
8411;SDS011;4243;49.296;11.348;2023-02-27T00:20:11;112.47;;;3.53;;
8411;SDS011;4243;49.296;11.348;2023-02-27T00:22:42;112.38;;;3.50;;
8411;SDS011;4243;49.296;11.348;2023-02-27T00:25:10;112.18;;;3.47;;
8411;SDS011;4243;49.296;11.348;2023-02-27T00:27:39;111.80;;;3.47;;
8411;SDS011;4243;49.296;11.348;2023-02-27T00:30:08;112.18;;;3.50;;
8411;SDS011;4243;49.296;11.348;2023-02-27T00:32:39;112.18;;;3.47;;
8411;SDS011;4243;49.296;11.348;2023-02-27T00:35:08;111.55;;;3.47;;
8411;SDS011;4243;49.296;11.348;2023-02-27T00:37:37;112.07;;;3.47;;
8411;SDS011;4243;49.296;11.348;2023-02-27T00:40:05;110.95;;;3.45;;
8411;SDS011;4243;49.296;11.348;2023-02-27T00:42:34;112.13;;;3.50;;
8411;SDS011;4243;49.296;11.348;2023-02-27T00:45:02;112.68;;;3.45;;
8411;SDS011;4243;49.296;11.348;2023-02-27T00:47:31;111.97;;;3.47;;
8411;SDS011;4243;49.296;11.348;2023-02-27T00:50:00;111.97;;;3.50;;
8411;SDS011;4243;49.296;11.348;2023-02-27T00:52:28;110.78;;;3.45;;
8411;SDS011;4243;49.296;11.348;2023-02-27T00:54:57;111.68;;;3.47;;
8411;SDS011;4243;49.296;11.348;2023-02-27T00:57:24;111.97;;;3.50;;
8411;SDS011;4243;49.296;11.348;2023-02-27T00:59:52;111.50;;;3.40;;
8411;SDS011;4243;49.296;11.348;2023-02-27T01:02:20;111.78;;;3.50;;
8411;SDS011;4243;49.296;11.348;2023-02-27T01:04:47;111.88;;;3.47;;
8411;SDS011;4243;49.296;11.348;2023-02-27T01:07:15;111.10;;;3.53;;
8411;SDS011;4243;49.296;11.348;2023-02-27T01:09:42;111.97;;;3.47;;
8411;SDS011;4243;49.296;11.348;2023-02-27T01:12:09;112.07;;;3.50;;
8411;SDS011;4243;49.296;11.348;2023-02-27T01:14:37;111.63;;;3.47;;
8411;SDS011;4243;49.296;11.348;2023-02-27T01:17:04;111.40;;;3.47;;
8411;SDS011;4243;49.296;11.348;2023-02-27T01:19:31;111.88;;;3.42;;
8411;SDS011;4243;49.296;11.348;2023-02-27T01:21:58;111.97;;;3.42;;
8411;SDS011;4243;49.296;11.348;2023-02-27T01:24:26;112.03;;;3.42;;
8411;SDS011;4243;49.296;11.348;2023-02-27T01:26:53;111.78;;;3.42;;
8411;SDS011;4243;49.296;11.348;2023-02-27T01:29:20;111.22;;;3.40;;
8411;SDS011;4243;49.296;11.348;2023-02-27T01:31:48;111.72;;;3.50;;
8411;SDS011;4243;49.296;11.348;2023-02-27T01:34:16;111.57;;;3.45;;
8411;SDS011;4243;49.296;11.348;2023-02-27T01:36:43;111.53;;;3.40;;
8411;SDS011;4243;49.296;11.348;2023-02-27T01:39:14;111.13;;;3.42;;
8411;SDS011;4243;49.296;11.348;2023-02-27T01:41:41;112.10;;;3.42;;
8411;SDS011;4243;49.296;11.348;2023-02-27T01:44:10;111.53;;;3.40;;
8411;SDS011;4243;49.296;11.348;2023-02-27T01:46:39;112.00;;;3.45;;
8411;SDS011;4243;49.296;11.348;2023-02-27T01:49:11;111.38;;;3.47;;
8411;SDS011;4243;49.296;11.348;2023-02-27T01:51:56;112.03;;;3.40;;
8411;SDS011;4243;49.296;11.348;2023-02-27T01:54:32;111.97;;;3.42;;
8411;SDS011;4243;49.296;11.348;2023-02-27T01:57:06;112.05;;;3.45;;
8411;SDS011;4243;49.296;11.348;2023-02-27T01:59:35;110.65;;;3.40;;
8411;SDS011;4243;49.296;11.348;2023-02-27T02:02:13;111.78;;;3.38;;
8411;SDS011;4243;49.296;11.348;2023-02-27T02:04:53;111.90;;;3.45;;
8411;SDS011;4243;49.296;11.348;2023-02-27T02:07:24;111.57;;;3.42;;
8411;SDS011;4243;49.296;11.348;2023-02-27T02:09:52;111.15;;;3.42;;
8411;SDS011;4243;49.296;11.348;2023-02-27T02:12:29;111.88;;;3.47;;
8411;SDS011;4243;49.296;11.348;2023-02-27T02:15:01;111.68;;;3.47;;
8411;SDS011;4243;49.296;11.348;2023-02-27T02:21:03;111.22;;;3.50;;
8411;SDS011;4243;49.296;11.348;2023-02-27T02:27:24;111.72;;;3.47;;
8411;SDS011;4243;49.296;11.348;2023-02-27T02:40:27;111.72;;;3.47;;
8411;SDS011;4243;49.296;11.348;2023-02-27T02:43:39;111.50;;;3.45;;
8411;SDS011;4243;49.296;11.348;2023-02-27T02:46:45;111.93;;;3.47;;
8411;SDS011;4243;49.296;11.348;2023-02-27T02:49:56;111.47;;;3.47;;
8411;SDS011;4243;49.296;11.348;2023-02-27T02:55:51;111.47;;;3.50;;
8411;SDS011;4243;49.296;11.348;2023-02-27T02:58:47;111.38;;;3.45;;
8411;SDS011;4243;49.296;11.348;2023-02-27T03:01:38;111.32;;;3.45;;
8411;SDS011;4243;49.296;11.348;2023-02-27T03:04:14;111.22;;;3.40;;
8411;SDS011;4243;49.296;11.348;2023-02-27T03:07:10;111.47;;;3.47;;
8411;SDS011;4243;49.296;11.348;2023-02-27T03:10:16;111.68;;;3.53;;
8411;SDS011;4243;49.296;11.348;2023-02-27T03:13:01;111.22;;;3.45;;
8411;SDS011;4243;49.296;11.348;2023-02-27T03:18:43;111.28;;;3.45;;
8411;SDS011;4243;49.296;11.348;2023-02-27T03:22:16;111.57;;;3.47;;
8411;SDS011;4243;49.296;11.348;2023-02-27T03:27:18;111.57;;;3.60;;
8411;SDS011;4243;49.296;11.348;2023-02-27T03:32:56;111.45;;;3.50;;
8411;SDS011;4243;49.296;11.348;2023-02-27T03:35:50;111.28;;;3.53;;
8411;SDS011;4243;49.296;11.348;2023-02-27T03:38:39;110.47;;;3.50;;
8411;SDS011;4243;49.296;11.348;2023-02-27T03:41:29;111.22;;;3.53;;
8411;SDS011;4243;49.296;11.348;2023-02-27T03:44:49;110.90;;;3.58;;
8411;SDS011;4243;49.296;11.348;2023-02-27T03:48:05;111.03;;;3.58;;
8411;SDS011;4243;49.296;11.348;2023-02-27T03:50:34;110.40;;;3.50;;
8411;SDS011;4243;49.296;11.348;2023-02-27T03:53:04;110.63;;;3.53;;
8411;SDS011;4243;49.296;11.348;2023-02-27T03:55:46;111.38;;;3.60;;
8411;SDS011;4243;49.296;11.348;2023-02-27T03:58:17;110.32;;;3.50;;
8411;SDS011;4243;49.296;11.348;2023-02-27T04:00:44;110.82;;;3.50;;
8411;SDS011;4243;49.296;11.348;2023-02-27T04:03:12;111.18;;;3.58;;
8411;SDS011;4243;49.296;11.348;2023-02-27T04:05:39;111.47;;;3.55;;
8411;SDS011;4243;49.296;11.348;2023-02-27T04:08:15;111.07;;;3.50;;
8411;SDS011;4243;49.296;11.348;2023-02-27T04:17:38;111.25;;;3.55;;
8411;SDS011;4243;49.296;11.348;2023-02-27T04:20:40;111.18;;;3.53;;
8411;SDS011;4243;49.296;11.348;2023-02-27T04:23:39;111.15;;;3.53;;
8411;SDS011;4243;49.296;11.348;2023-02-27T04:26:25;111.15;;;3.58;;
8411;SDS011;4243;49.296;11.348;2023-02-27T04:29:34;111.28;;;3.55;;
8411;SDS011;4243;49.296;11.348;2023-02-27T04:32:21;110.93;;;3.55;;
8411;SDS011;4243;49.296;11.348;2023-02-27T04:35:41;110.63;;;3.50;;
8411;SDS011;4243;49.296;11.348;2023-02-27T04:38:22;111.28;;;3.58;;
8411;SDS011;4243;49.296;11.348;2023-02-27T04:41:02;111.18;;;3.60;;
8411;SDS011;4243;49.296;11.348;2023-02-27T04:43:41;111.38;;;3.53;;
8411;SDS011;4243;49.296;11.348;2023-02-27T04:46:12;110.63;;;3.55;;
8411;SDS011;4243;49.296;11.348;2023-02-27T04:48:57;111.18;;;3.55;;
8411;SDS011;4243;49.296;11.348;2023-02-27T04:51:43;111.47;;;3.58;;
8411;SDS011;4243;49.296;11.348;2023-02-27T04:54:24;111.07;;;3.53;;
8411;SDS011;4243;49.296;11.348;2023-02-27T04:57:02;110.82;;;3.53;;
8411;SDS011;4243;49.296;11.348;2023-02-27T04:59:38;111.07;;;3.58;;
8411;SDS011;4243;49.296;11.348;2023-02-27T05:02:18;110.13;;;3.53;;
8411;SDS011;4243;49.296;11.348;2023-02-27T05:05:10;111.07;;;3.55;;
8411;SDS011;4243;49.296;11.348;2023-02-27T05:07:47;110.97;;;3.60;;
8411;SDS011;4243;49.296;11.348;2023-02-27T05:17:08;109.53;;;3.53;;
8411;SDS011;4243;49.296;11.348;2023-02-27T05:19:50;110.53;;;3.50;;
8411;SDS011;4243;49.296;11.348;2023-02-27T05:30:35;110.82;;;3.55;;
8411;SDS011;4243;49.296;11.348;2023-02-27T05:33:40;109.90;;;3.50;;
8411;SDS011;4243;49.296;11.348;2023-02-27T05:36:33;110.97;;;3.53;;
8411;SDS011;4243;49.296;11.348;2023-02-27T05:39:25;110.43;;;3.50;;
8411;SDS011;4243;49.296;11.348;2023-02-27T05:41:57;110.88;;;3.47;;
8411;SDS011;4243;49.296;11.348;2023-02-27T05:44:41;110.53;;;3.55;;
8411;SDS011;4243;49.296;11.348;2023-02-27T05:47:19;110.82;;;3.50;;
8411;SDS011;4243;49.296;11.348;2023-02-27T05:49:52;110.97;;;3.50;;
8411;SDS011;4243;49.296;11.348;2023-02-27T05:52:43;111.25;;;3.50;;
8411;SDS011;4243;49.296;11.348;2023-02-27T05:55:17;111.05;;;3.50;;
8411;SDS011;4243;49.296;11.348;2023-02-27T05:57:56;110.78;;;3.53;;
8411;SDS011;4243;49.296;11.348;2023-02-27T06:00:59;110.78;;;3.50;;
8411;SDS011;4243;49.296;11.348;2023-02-27T06:03:31;110.80;;;3.50;;
8411;SDS011;4243;49.296;11.348;2023-02-27T06:06:03;110.97;;;3.50;;
8411;SDS011;4243;49.296;11.348;2023-02-27T06:08:36;111.15;;;3.50;;
8411;SDS011;4243;49.296;11.348;2023-02-27T06:11:03;110.57;;;3.50;;
8411;SDS011;4243;49.296;11.348;2023-02-27T06:13:31;110.85;;;3.50;;
8411;SDS011;4243;49.296;11.348;2023-02-27T06:15:58;109.38;;;3.47;;
8411;SDS011;4243;49.296;11.348;2023-02-27T06:18:25;111.15;;;3.50;;
8411;SDS011;4243;49.296;11.348;2023-02-27T06:20:53;111.07;;;3.50;;
8411;SDS011;4243;49.296;11.348;2023-02-27T06:23:20;110.97;;;3.60;;
8411;SDS011;4243;49.296;11.348;2023-02-27T06:25:48;111.07;;;3.50;;
8411;SDS011;4243;49.296;11.348;2023-02-27T06:28:15;111.07;;;3.53;;
8411;SDS011;4243;49.296;11.348;2023-02-27T06:30:42;111.45;;;3.53;;
8411;SDS011;4243;49.296;11.348;2023-02-27T06:33:11;110.63;;;3.45;;
8411;SDS011;4243;49.296;11.348;2023-02-27T06:35:39;111.03;;;3.50;;
8411;SDS011;4243;49.296;11.348;2023-02-27T06:38:06;111.15;;;3.47;;
8411;SDS011;4243;49.296;11.348;2023-02-27T06:40:33;110.80;;;3.47;;
8411;SDS011;4243;49.296;11.348;2023-02-27T06:43:01;110.13;;;3.47;;
8411;SDS011;4243;49.296;11.348;2023-02-27T06:45:28;110.97;;;3.50;;
8411;SDS011;4243;49.296;11.348;2023-02-27T06:47:55;110.72;;;3.45;;
8411;SDS011;4243;49.296;11.348;2023-02-27T06:50:22;111.07;;;3.47;;
8411;SDS011;4243;49.296;11.348;2023-02-27T06:52:50;111.20;;;3.45;;
8411;SDS011;4243;49.296;11.348;2023-02-27T06:55:17;110.97;;;3.50;;
8411;SDS011;4243;49.296;11.348;2023-02-27T06:57:46;110.88;;;3.38;;
8411;SDS011;4243;49.296;11.348;2023-02-27T07:00:14;111.18;;;3.40;;
8411;SDS011;4243;49.296;11.348;2023-02-27T07:02:42;111.35;;;3.40;;
8411;SDS011;4243;49.296;11.348;2023-02-27T07:05:10;110.10;;;3.40;;
8411;SDS011;4243;49.296;11.348;2023-02-27T07:07:37;111.10;;;3.42;;
8411;SDS011;4243;49.296;11.348;2023-02-27T07:10:09;111.30;;;3.38;;
8411;SDS011;4243;49.296;11.348;2023-02-27T07:12:39;111.18;;;3.42;;
8411;SDS011;4243;49.296;11.348;2023-02-27T07:15:07;110.90;;;3.40;;
8411;SDS011;4243;49.296;11.348;2023-02-27T07:17:35;110.22;;;3.35;;
8411;SDS011;4243;49.296;11.348;2023-02-27T07:20:04;110.82;;;3.33;;
8411;SDS011;4243;49.296;11.348;2023-02-27T07:22:34;111.20;;;3.38;;
8411;SDS011;4243;49.296;11.348;2023-02-27T07:25:02;110.47;;;3.30;;
8411;SDS011;4243;49.296;11.348;2023-02-27T07:27:31;111.57;;;3.30;;
8411;SDS011;4243;49.296;11.348;2023-02-27T07:29:59;111.15;;;3.28;;
8411;SDS011;4243;49.296;11.348;2023-02-27T07:32:27;111.10;;;3.30;;
8411;SDS011;4243;49.296;11.348;2023-02-27T07:34:54;111.15;;;3.30;;
8411;SDS011;4243;49.296;11.348;2023-02-27T07:37:21;110.53;;;3.30;;
8411;SDS011;4243;49.296;11.348;2023-02-27T07:39:51;111.63;;;3.28;;
8411;SDS011;4243;49.296;11.348;2023-02-27T07:42:18;110.37;;;3.20;;
8411;SDS011;4243;49.296;11.348;2023-02-27T07:44:46;110.82;;;3.22;;
8411;SDS011;4243;49.296;11.348;2023-02-27T07:47:14;110.90;;;3.22;;
8411;SDS011;4243;49.296;11.348;2023-02-27T07:49:42;110.88;;;3.20;;
8411;SDS011;4243;49.296;11.348;2023-02-27T07:52:10;110.97;;;3.25;;
8411;SDS011;4243;49.296;11.348;2023-02-27T07:54:37;110.82;;;3.17;;
8411;SDS011;4243;49.296;11.348;2023-02-27T07:57:04;111.00;;;3.15;;
8411;SDS011;4243;49.296;11.348;2023-02-27T07:59:32;110.03;;;3.17;;
8411;SDS011;4243;49.296;11.348;2023-02-27T08:01:59;108.10;;;3.10;;
8411;SDS011;4243;49.296;11.348;2023-02-27T08:04:26;110.87;;;3.20;;
8411;SDS011;4243;49.296;11.348;2023-02-27T08:06:53;110.47;;;3.20;;
8411;SDS011;4243;49.296;11.348;2023-02-27T08:09:20;110.70;;;3.20;;
8411;SDS011;4243;49.296;11.348;2023-02-27T08:11:48;111.50;;;3.20;;
8411;SDS011;4243;49.296;11.348;2023-02-27T08:14:15;111.40;;;3.20;;
8411;SDS011;4243;49.296;11.348;2023-02-27T08:16:43;111.57;;;3.23;;
8411;SDS011;4243;49.296;11.348;2023-02-27T08:19:11;109.67;;;3.20;;
8411;SDS011;4243;49.296;11.348;2023-02-27T08:21:39;107.87;;;3.17;;
8411;SDS011;4243;49.296;11.348;2023-02-27T08:24:06;111.67;;;3.20;;
8411;SDS011;4243;49.296;11.348;2023-02-27T08:26:34;109.07;;;3.17;;
8411;SDS011;4243;49.296;11.348;2023-02-27T08:29:02;109.70;;;3.10;;
8411;SDS011;4243;49.296;11.348;2023-02-27T08:31:29;109.30;;;3.10;;
8411;SDS011;4243;49.296;11.348;2023-02-27T08:33:56;109.97;;;3.10;;
8411;SDS011;4243;49.296;11.348;2023-02-27T08:36:35;110.37;;;3.13;;
8411;SDS011;4243;49.296;11.348;2023-02-27T08:39:04;111.90;;;3.13;;
8411;SDS011;4243;49.296;11.348;2023-02-27T08:41:33;111.07;;;3.10;;
8411;SDS011;4243;49.296;11.348;2023-02-27T08:44:02;111.47;;;3.07;;
8411;SDS011;4243;49.296;11.348;2023-02-27T08:46:29;111.17;;;3.10;;
8411;SDS011;4243;49.296;11.348;2023-02-27T08:48:57;111.57;;;3.07;;
8411;SDS011;4243;49.296;11.348;2023-02-27T08:51:24;110.17;;;3.00;;
8411;SDS011;4243;49.296;11.348;2023-02-27T08:53:52;110.37;;;3.00;;
8411;SDS011;4243;49.296;11.348;2023-02-27T08:56:24;111.20;;;3.07;;
8411;SDS011;4243;49.296;11.348;2023-02-27T08:58:52;112.83;;;3.00;;
8411;SDS011;4243;49.296;11.348;2023-02-27T09:03:38;112.50;;;3.07;;
8411;SDS011;4243;49.296;11.348;2023-02-27T09:06:07;111.87;;;3.10;;
8411;SDS011;4243;49.296;11.348;2023-02-27T09:08:38;111.37;;;3.03;;
8411;SDS011;4243;49.296;11.348;2023-02-27T09:11:05;112.73;;;3.07;;
8411;SDS011;4243;49.296;11.348;2023-02-27T09:13:32;111.77;;;3.03;;
8411;SDS011;4243;49.296;11.348;2023-02-27T09:16:00;112.50;;;3.03;;
8411;SDS011;4243;49.296;11.348;2023-02-27T09:18:27;113.47;;;2.97;;
8411;SDS011;4243;49.296;11.348;2023-02-27T09:20:54;113.67;;;3.00;;
8411;SDS011;4243;49.296;11.348;2023-02-27T09:23:21;113.50;;;2.93;;
8411;SDS011;4243;49.296;11.348;2023-02-27T09:25:49;114.40;;;2.90;;
8411;SDS011;4243;49.296;11.348;2023-02-27T09:28:16;112.90;;;2.90;;
8411;SDS011;4243;49.296;11.348;2023-02-27T09:30:43;114.70;;;2.90;;
8411;SDS011;4243;49.296;11.348;2023-02-27T09:33:10;113.30;;;2.97;;
8411;SDS011;4243;49.296;11.348;2023-02-27T09:35:37;114.70;;;2.93;;
8411;SDS011;4243;49.296;11.348;2023-02-27T09:38:04;114.67;;;3.00;;
8411;SDS011;4243;49.296;11.348;2023-02-27T09:40:33;114.40;;;2.97;;
8411;SDS011;4243;49.296;11.348;2023-02-27T09:43:13;114.37;;;3.00;;
8411;SDS011;4243;49.296;11.348;2023-02-27T09:46:03;114.40;;;3.00;;
8411;SDS011;4243;49.296;11.348;2023-02-27T09:48:44;114.47;;;2.90;;
8411;SDS011;4243;49.296;11.348;2023-02-27T09:51:17;114.50;;;3.00;;
8411;SDS011;4243;49.296;11.348;2023-02-27T09:53:47;114.10;;;2.90;;
8411;SDS011;4243;49.296;11.348;2023-02-27T09:56:23;113.87;;;2.80;;
8411;SDS011;4243;49.296;11.348;2023-02-27T09:59:01;115.20;;;2.90;;
8411;SDS011;4243;49.296;11.348;2023-02-27T10:01:57;113.20;;;2.80;;
8411;SDS011;4243;49.296;11.348;2023-02-27T10:08:34;114.70;;;2.90;;
8411;SDS011;4243;49.296;11.348;2023-02-27T10:11:56;114.73;;;2.87;;
8411;SDS011;4243;49.296;11.348;2023-02-27T10:15:03;113.97;;;2.90;;
8411;SDS011;4243;49.296;11.348;2023-02-27T10:17:46;113.93;;;2.87;;
8411;SDS011;4243;49.296;11.348;2023-02-27T10:23:11;113.80;;;2.90;;
8411;SDS011;4243;49.296;11.348;2023-02-27T10:25:47;114.37;;;2.90;;
8411;SDS011;4243;49.296;11.348;2023-02-27T10:28:18;114.10;;;2.90;;
8411;SDS011;4243;49.296;11.348;2023-02-27T10:30:49;114.07;;;2.90;;
8411;SDS011;4243;49.296;11.348;2023-02-27T10:36:04;113.90;;;2.97;;
8411;SDS011;4243;49.296;11.348;2023-02-27T10:38:55;112.37;;;2.93;;
8411;SDS011;4243;49.296;11.348;2023-02-27T10:41:31;114.10;;;2.93;;
8411;SDS011;4243;49.296;11.348;2023-02-27T10:44:00;114.37;;;2.90;;
8411;SDS011;4243;49.296;11.348;2023-02-27T10:46:28;113.97;;;2.90;;
8411;SDS011;4243;49.296;11.348;2023-02-27T10:49:00;113.80;;;2.93;;
8411;SDS011;4243;49.296;11.348;2023-02-27T10:51:43;113.70;;;2.93;;
8411;SDS011;4243;49.296;11.348;2023-02-27T10:56:54;113.63;;;2.90;;
8411;SDS011;4243;49.296;11.348;2023-02-27T10:59:32;114.07;;;2.83;;
8411;SDS011;4243;49.296;11.348;2023-02-27T11:04:51;113.60;;;2.80;;
8411;SDS011;4243;49.296;11.348;2023-02-27T11:07:26;114.60;;;2.87;;
8411;SDS011;4243;49.296;11.348;2023-02-27T11:15:31;114.33;;;2.90;;
8411;SDS011;4243;49.296;11.348;2023-02-27T11:18:20;113.63;;;2.90;;
8411;SDS011;4243;49.296;11.348;2023-02-27T11:21:12;114.57;;;3.00;;
8411;SDS011;4243;49.296;11.348;2023-02-27T11:23:49;114.07;;;2.90;;
8411;SDS011;4243;49.296;11.348;2023-02-27T11:26:23;114.33;;;2.90;;
8411;SDS011;4243;49.296;11.348;2023-02-27T11:29:04;114.63;;;2.90;;
8411;SDS011;4243;49.296;11.348;2023-02-27T11:31:47;115.47;;;2.90;;
8411;SDS011;4243;49.296;11.348;2023-02-27T11:34:28;115.00;;;2.80;;
8411;SDS011;4243;49.296;11.348;2023-02-27T11:37:05;116.30;;;2.77;;
8411;SDS011;4243;49.296;11.348;2023-02-27T11:42:35;116.20;;;2.60;;
8411;SDS011;4243;49.296;11.348;2023-02-27T11:48:08;115.90;;;2.60;;
8411;SDS011;4243;49.296;11.348;2023-02-27T11:54:11;112.20;;;2.70;;
8411;SDS011;4243;49.296;11.348;2023-02-27T12:03:05;115.30;;;2.70;;
8411;SDS011;4243;49.296;11.348;2023-02-27T12:06:02;115.27;;;2.63;;
8411;SDS011;4243;49.296;11.348;2023-02-27T12:08:44;113.50;;;2.70;;
8411;SDS011;4243;49.296;11.348;2023-02-27T12:11:36;114.50;;;2.70;;
8411;SDS011;4243;49.296;11.348;2023-02-27T12:16:48;113.87;;;2.70;;
8411;SDS011;4243;49.296;11.348;2023-02-27T12:22:28;113.97;;;2.77;;
8411;SDS011;4243;49.296;11.348;2023-02-27T12:37:10;115.87;;;2.60;;
8411;SDS011;4243;49.296;11.348;2023-02-27T12:39:46;114.47;;;2.60;;
8411;SDS011;4243;49.296;11.348;2023-02-27T12:48:51;113.57;;;2.60;;
8411;SDS011;4243;49.296;11.348;2023-02-27T12:57:12;114.70;;;2.80;;
8411;SDS011;4243;49.296;11.348;2023-02-27T13:00:15;114.20;;;2.73;;
8411;SDS011;4243;49.296;11.348;2023-02-27T13:05:45;113.67;;;2.70;;
8411;SDS011;4243;49.296;11.348;2023-02-27T13:15:23;114.73;;;2.67;;
8411;SDS011;4243;49.296;11.348;2023-02-27T13:18:30;115.57;;;2.67;;
8411;SDS011;4243;49.296;11.348;2023-02-27T13:21:11;115.30;;;2.60;;
8411;SDS011;4243;49.296;11.348;2023-02-27T13:24:53;115.30;;;2.70;;
8411;SDS011;4243;49.296;11.348;2023-02-27T13:27:35;115.70;;;2.60;;
8411;SDS011;4243;49.296;11.348;2023-02-27T13:30:17;115.20;;;2.60;;
8411;SDS011;4243;49.296;11.348;2023-02-27T13:38:56;115.00;;;2.60;;
8411;SDS011;4243;49.296;11.348;2023-02-27T13:43:58;114.70;;;2.60;;
8411;SDS011;4243;49.296;11.348;2023-02-27T13:46:41;115.17;;;2.60;;
8411;SDS011;4243;49.296;11.348;2023-02-27T13:51:52;115.30;;;2.60;;
8411;SDS011;4243;49.296;11.348;2023-02-27T13:54:24;115.77;;;2.67;;
8411;SDS011;4243;49.296;11.348;2023-02-27T13:59:50;115.37;;;2.60;;
8411;SDS011;4243;49.296;11.348;2023-02-27T14:02:33;115.40;;;2.63;;
8411;SDS011;4243;49.296;11.348;2023-02-27T14:05:34;115.40;;;2.60;;
8411;SDS011;4243;49.296;11.348;2023-02-27T14:10:55;112.67;;;2.60;;
8411;SDS011;4243;49.296;11.348;2023-02-27T14:24:40;114.27;;;2.60;;
8411;SDS011;4243;49.296;11.348;2023-02-27T14:27:28;115.17;;;2.70;;
8411;SDS011;4243;49.296;11.348;2023-02-27T14:36:05;114.00;;;2.67;;
8411;SDS011;4243;49.296;11.348;2023-02-27T14:38:46;114.90;;;2.70;;
8411;SDS011;4243;49.296;11.348;2023-02-27T14:41:25;114.77;;;2.80;;
8411;SDS011;4243;49.296;11.348;2023-02-27T14:44:25;113.23;;;2.73;;
8411;SDS011;4243;49.296;11.348;2023-02-27T14:47:01;114.40;;;2.80;;
8411;SDS011;4243;49.296;11.348;2023-02-27T14:49:33;115.27;;;2.80;;
8411;SDS011;4243;49.296;11.348;2023-02-27T14:54:51;113.70;;;2.80;;
8411;SDS011;4243;49.296;11.348;2023-02-27T14:58:00;114.40;;;2.83;;
8411;SDS011;4243;49.296;11.348;2023-02-27T15:03:33;114.10;;;2.90;;
8411;SDS011;4243;49.296;11.348;2023-02-27T15:06:13;114.00;;;2.93;;
8411;SDS011;4243;49.296;11.348;2023-02-27T15:09:00;113.77;;;2.90;;
8411;SDS011;4243;49.296;11.348;2023-02-27T15:11:28;114.40;;;2.93;;
8411;SDS011;4243;49.296;11.348;2023-02-27T15:13:57;114.00;;;3.10;;
8411;SDS011;4243;49.296;11.348;2023-02-27T15:16:31;114.40;;;3.03;;
8411;SDS011;4243;49.296;11.348;2023-02-27T15:19:11;113.27;;;3.17;;
8411;SDS011;4243;49.296;11.348;2023-02-27T15:21:47;114.13;;;3.13;;
8411;SDS011;4243;49.296;11.348;2023-02-27T15:26:51;113.67;;;3.10;;
8411;SDS011;4243;49.296;11.348;2023-02-27T15:29:37;114.57;;;3.20;;
8411;SDS011;4243;49.296;11.348;2023-02-27T15:35:01;113.97;;;3.00;;
8411;SDS011;4243;49.296;11.348;2023-02-27T15:37:42;113.80;;;3.00;;
8411;SDS011;4243;49.296;11.348;2023-02-27T15:40:20;113.40;;;3.10;;
8411;SDS011;4243;49.296;11.348;2023-02-27T15:42:52;114.10;;;3.10;;
8411;SDS011;4243;49.296;11.348;2023-02-27T15:45:22;113.23;;;3.10;;
8411;SDS011;4243;49.296;11.348;2023-02-27T15:47:55;114.30;;;3.13;;
8411;SDS011;4243;49.296;11.348;2023-02-27T15:50:25;113.90;;;3.17;;
8411;SDS011;4243;49.296;11.348;2023-02-27T15:53:16;113.83;;;3.20;;
8411;SDS011;4243;49.296;11.348;2023-02-27T15:55:56;113.63;;;3.20;;
8411;SDS011;4243;49.296;11.348;2023-02-27T15:58:35;113.87;;;3.13;;
8411;SDS011;4243;49.296;11.348;2023-02-27T16:01:12;113.70;;;3.17;;
8411;SDS011;4243;49.296;11.348;2023-02-27T16:03:48;113.37;;;3.13;;
8411;SDS011;4243;49.296;11.348;2023-02-27T16:06:23;113.50;;;3.20;;
8411;SDS011;4243;49.296;11.348;2023-02-27T16:09:05;113.43;;;3.20;;
8411;SDS011;4243;49.296;11.348;2023-02-27T16:15:19;112.20;;;3.30;;
8411;SDS011;4243;49.296;11.348;2023-02-27T16:17:57;113.50;;;3.20;;
8411;SDS011;4243;49.296;11.348;2023-02-27T16:20:37;114.37;;;3.20;;
8411;SDS011;4243;49.296;11.348;2023-02-27T16:23:26;113.80;;;3.20;;
8411;SDS011;4243;49.296;11.348;2023-02-27T16:26:01;113.07;;;3.20;;
8411;SDS011;4243;49.296;11.348;2023-02-27T16:28:53;112.10;;;3.23;;
8411;SDS011;4243;49.296;11.348;2023-02-27T16:31:45;113.43;;;3.23;;
8411;SDS011;4243;49.296;11.348;2023-02-27T16:37:21;113.70;;;3.20;;
8411;SDS011;4243;49.296;11.348;2023-02-27T16:39:57;113.60;;;3.20;;
8411;SDS011;4243;49.296;11.348;2023-02-27T16:42:24;112.27;;;3.20;;
8411;SDS011;4243;49.296;11.348;2023-02-27T16:44:51;113.80;;;3.27;;
8411;SDS011;4243;49.296;11.348;2023-02-27T16:47:18;112.67;;;3.20;;
8411;SDS011;4243;49.296;11.348;2023-02-27T16:49:46;112.90;;;3.20;;
8411;SDS011;4243;49.296;11.348;2023-02-27T16:52:14;114.27;;;3.27;;
8411;SDS011;4243;49.296;11.348;2023-02-27T16:54:42;113.60;;;3.27;;
8411;SDS011;4243;49.296;11.348;2023-02-27T16:57:09;112.87;;;3.27;;
8411;SDS011;4243;49.296;11.348;2023-02-27T16:59:37;112.77;;;3.30;;
8411;SDS011;4243;49.296;11.348;2023-02-27T17:02:09;112.87;;;3.27;;
8411;SDS011;4243;49.296;11.348;2023-02-27T17:04:40;112.57;;;3.23;;
8411;SDS011;4243;49.296;11.348;2023-02-27T17:07:11;110.20;;;3.27;;
8411;SDS011;4243;49.296;11.348;2023-02-27T17:09:45;113.87;;;3.30;;
8411;SDS011;4243;49.296;11.348;2023-02-27T17:12:13;113.10;;;3.20;;
8411;SDS011;4243;49.296;11.348;2023-02-27T17:14:40;112.77;;;3.27;;
8411;SDS011;4243;49.296;11.348;2023-02-27T17:17:07;113.27;;;3.20;;
8411;SDS011;4243;49.296;11.348;2023-02-27T17:19:36;112.70;;;3.23;;
8411;SDS011;4243;49.296;11.348;2023-02-27T17:22:04;110.87;;;3.30;;
8411;SDS011;4243;49.296;11.348;2023-02-27T17:24:31;112.10;;;3.20;;
8411;SDS011;4243;49.296;11.348;2023-02-27T17:26:59;112.97;;;3.30;;
8411;SDS011;4243;49.296;11.348;2023-02-27T17:29:26;112.73;;;3.27;;
8411;SDS011;4243;49.296;11.348;2023-02-27T17:31:53;112.77;;;3.20;;
8411;SDS011;4243;49.296;11.348;2023-02-27T17:34:21;113.47;;;3.23;;
8411;SDS011;4243;49.296;11.348;2023-02-27T17:36:48;113.27;;;3.30;;
8411;SDS011;4243;49.296;11.348;2023-02-27T17:39:15;112.07;;;3.20;;
8411;SDS011;4243;49.296;11.348;2023-02-27T17:41:43;112.07;;;3.23;;
8411;SDS011;4243;49.296;11.348;2023-02-27T17:44:12;112.70;;;3.30;;
8411;SDS011;4243;49.296;11.348;2023-02-27T17:46:40;110.90;;;3.33;;
8411;SDS011;4243;49.296;11.348;2023-02-27T17:49:07;112.27;;;3.27;;
8411;SDS011;4243;49.296;11.348;2023-02-27T17:51:35;113.50;;;3.33;;
8411;SDS011;4243;49.296;11.348;2023-02-27T17:54:03;112.57;;;3.33;;
8411;SDS011;4243;49.296;11.348;2023-02-27T17:56:31;113.57;;;3.40;;
8411;SDS011;4243;49.296;11.348;2023-02-27T17:59:02;111.93;;;3.30;;
8411;SDS011;4243;49.296;11.348;2023-02-27T18:01:30;110.60;;;3.23;;
8411;SDS011;4243;49.296;11.348;2023-02-27T18:03:57;113.30;;;3.30;;
8411;SDS011;4243;49.296;11.348;2023-02-27T18:06:25;111.30;;;3.27;;
8411;SDS011;4243;49.296;11.348;2023-02-27T18:08:53;111.40;;;3.30;;
8411;SDS011;4243;49.296;11.348;2023-02-27T18:11:20;109.37;;;3.30;;
8411;SDS011;4243;49.296;11.348;2023-02-27T18:13:48;110.97;;;3.30;;
8411;SDS011;4243;49.296;11.348;2023-02-27T18:16:16;112.23;;;3.30;;
8411;SDS011;4243;49.296;11.348;2023-02-27T18:18:47;112.47;;;3.30;;
8411;SDS011;4243;49.296;11.348;2023-02-27T18:21:16;112.57;;;3.33;;